createdAt,value
2018-11-10T00:01:06.739Z,9.40
2018-11-10T00:03:34.252Z,9.40
2018-11-10T00:06:01.766Z,9.40
2018-11-10T00:08:29.276Z,9.50
2018-11-10T00:10:56.675Z,9.40
2018-11-10T00:13:24.134Z,9.30
2018-11-10T00:15:51.757Z,9.40
2018-11-10T00:18:19.224Z,9.30
2018-11-10T00:20:46.692Z,9.30
2018-11-10T00:23:14.202Z,9.30
2018-11-10T00:25:41.862Z,9.30
2018-11-10T00:28:09.384Z,9.30
2018-11-10T00:30:36.887Z,9.30
2018-11-10T00:33:04.674Z,9.40
2018-11-10T00:35:32.231Z,9.30
2018-11-10T00:37:59.661Z,9.30
2018-11-10T00:40:27.280Z,9.30
2018-11-10T00:42:54.765Z,9.30
2018-11-10T00:45:22.331Z,9.30
2018-11-10T00:47:49.753Z,9.20
2018-11-10T00:50:17.311Z,9.30
2018-11-10T00:52:44.774Z,9.20
2018-11-10T00:55:12.401Z,9.30
2018-11-10T00:57:39.957Z,9.30
2018-11-10T01:00:09.451Z,9.40
2018-11-10T01:02:37.085Z,9.40
2018-11-10T01:05:05.163Z,9.40
2018-11-10T01:07:32.635Z,9.40
2018-11-10T01:10:00.129Z,9.30
2018-11-10T01:12:27.602Z,9.30
2018-11-10T01:14:55.077Z,9.30
2018-11-10T01:17:22.570Z,9.40
2018-11-10T01:19:50.121Z,9.50
2018-11-10T01:22:17.498Z,9.50
2018-11-10T01:24:45.159Z,9.50
2018-11-10T01:27:12.707Z,9.50
2018-11-10T01:29:40.147Z,9.50
2018-11-10T01:32:07.727Z,9.50
2018-11-10T01:34:35.206Z,9.50
2018-11-10T01:37:02.701Z,9.50
2018-11-10T01:39:30.222Z,9.40
2018-11-10T01:41:57.654Z,9.50
2018-11-10T01:44:25.086Z,9.50
2018-11-10T01:46:52.520Z,9.50
2018-11-10T01:49:20.050Z,9.50
2018-11-10T01:51:47.495Z,9.50
2018-11-10T01:54:15.075Z,9.60
2018-11-10T01:56:42.566Z,9.60
2018-11-10T01:59:09.998Z,9.50
2018-11-10T02:01:37.568Z,9.40
2018-11-10T02:04:05.285Z,9.50
2018-11-10T02:06:32.794Z,9.50
2018-11-10T02:09:00.450Z,9.50
2018-11-10T02:11:27.996Z,9.40
2018-11-10T02:13:55.632Z,9.40
2018-11-10T02:16:23.154Z,9.30
2018-11-10T02:18:50.631Z,9.40
2018-11-10T02:21:18.070Z,9.50
2018-11-10T02:23:45.558Z,9.30
2018-11-10T02:26:13.109Z,9.40
2018-11-10T02:28:40.618Z,9.40
2018-11-10T02:31:08.228Z,9.40
2018-11-10T02:33:35.712Z,9.30
2018-11-10T02:36:03.164Z,9.30
2018-11-10T02:38:30.679Z,9.30
2018-11-10T02:40:58.268Z,9.40
2018-11-10T02:43:26.370Z,9.40
2018-11-10T02:45:53.779Z,9.40
2018-11-10T02:48:21.236Z,9.30
2018-11-10T02:50:48.649Z,9.40
2018-11-10T02:53:16.122Z,9.40
2018-11-10T02:55:43.667Z,9.40
2018-11-10T02:58:11.140Z,9.40
2018-11-10T03:00:38.595Z,9.50
2018-11-10T03:03:06.044Z,9.50
2018-11-10T03:05:33.709Z,9.40
2018-11-10T03:08:01.136Z,9.40
2018-11-10T03:10:28.617Z,9.40
2018-11-10T03:12:56.134Z,9.40
2018-11-10T03:15:23.582Z,9.40
2018-11-10T03:17:51.070Z,9.40
2018-11-10T03:20:18.623Z,9.40
2018-11-10T03:22:46.471Z,9.40
2018-11-10T03:25:13.932Z,9.40
2018-11-10T03:27:41.507Z,9.40
2018-11-10T03:30:09.553Z,9.40
2018-11-10T03:32:37.367Z,9.40
2018-11-10T03:35:06.006Z,9.40
2018-11-10T03:37:33.433Z,9.40
2018-11-10T03:40:01.786Z,9.40
2018-11-10T03:42:29.212Z,9.40
2018-11-10T03:44:56.689Z,9.40
2018-11-10T03:47:24.101Z,9.40
2018-11-10T03:49:51.581Z,9.40
2018-11-10T03:52:19.151Z,9.40
2018-11-10T03:54:46.644Z,9.50
2018-11-10T03:57:14.088Z,9.40
2018-11-10T03:59:41.519Z,9.40
2018-11-10T04:02:09.003Z,9.30
2018-11-10T04:04:36.503Z,9.30
2018-11-10T04:07:04.223Z,9.30
2018-11-10T04:09:31.853Z,9.30
2018-11-10T04:11:59.980Z,9.20
2018-11-10T04:14:27.525Z,9.20
2018-11-10T04:16:55.040Z,9.20
2018-11-10T04:19:22.498Z,9.20
2018-11-10T04:21:49.986Z,9.30
2018-11-10T04:24:17.393Z,9.30
2018-11-10T04:26:44.820Z,9.30
2018-11-10T04:29:12.328Z,9.30
2018-11-10T04:31:39.709Z,9.20
2018-11-10T04:34:07.299Z,9.20
2018-11-10T04:36:34.668Z,9.20
2018-11-10T04:39:02.383Z,9.10
2018-11-10T04:41:29.900Z,9.20
2018-11-10T04:43:57.394Z,9.20
2018-11-10T04:46:24.984Z,9.10
2018-11-10T04:48:52.563Z,9.10
2018-11-10T04:51:20.111Z,9.10
2018-11-10T04:53:47.466Z,9.10
2018-11-10T04:56:14.963Z,9.10
2018-11-10T04:58:42.442Z,9.10
2018-11-10T05:01:09.905Z,9.00
2018-11-10T05:03:37.306Z,9.10
2018-11-10T05:06:04.938Z,9.10
2018-11-10T05:08:32.554Z,9.10
2018-11-10T05:11:00.076Z,9.10
2018-11-10T05:13:27.602Z,9.00
2018-11-10T05:15:55.133Z,9.00
2018-11-10T05:18:22.580Z,9.00
2018-11-10T05:20:50.145Z,9.10
2018-11-10T05:23:17.738Z,9.10
2018-11-10T05:25:45.268Z,9.10
2018-11-10T05:28:12.690Z,9.10
2018-11-10T05:30:40.258Z,9.10
2018-11-10T05:33:07.694Z,9.10
2018-11-10T05:35:35.234Z,9.10
2018-11-10T05:38:03.074Z,9.10
2018-11-10T05:40:30.515Z,9.10
2018-11-10T05:42:57.901Z,9.20
2018-11-10T05:45:25.360Z,9.10
2018-11-10T05:47:53.559Z,9.20
2018-11-10T05:50:20.953Z,9.20
2018-11-10T05:52:48.454Z,9.10
2018-11-10T05:55:15.936Z,9.10
2018-11-10T05:57:43.452Z,9.10
2018-11-10T06:00:12.392Z,9.10
2018-11-10T06:02:39.857Z,9.20
2018-11-10T06:05:07.440Z,9.10
2018-11-10T06:07:34.896Z,9.10
2018-11-10T06:10:02.662Z,9.00
2018-11-10T06:12:30.086Z,9.10
2018-11-10T06:14:57.539Z,9.10
2018-11-10T06:17:25.052Z,9.00
2018-11-10T06:19:52.501Z,9.10
2018-11-10T06:22:19.973Z,9.10
2018-11-10T06:24:47.428Z,9.20
2018-11-10T06:27:15.566Z,9.10
2018-11-10T06:29:43.125Z,9.20
2018-11-10T06:32:10.553Z,9.30
2018-11-10T06:34:38.664Z,9.20
2018-11-10T06:37:06.326Z,9.20
2018-11-10T06:39:34.022Z,9.10
2018-11-10T06:42:01.550Z,9.10
2018-11-10T06:44:29.139Z,9.20
2018-11-10T06:46:56.639Z,9.20
2018-11-10T06:49:24.138Z,9.10
2018-11-10T06:51:51.571Z,9.10
2018-11-10T06:54:19.101Z,9.10
2018-11-10T06:56:46.567Z,9.20
2018-11-10T06:59:14.143Z,9.20
2018-11-10T07:01:41.703Z,9.30
2018-11-10T07:04:09.121Z,9.30
2018-11-10T07:06:36.514Z,9.30
2018-11-10T07:09:07.217Z,9.20
2018-11-10T07:11:34.961Z,9.20
2018-11-10T07:14:02.387Z,9.20
2018-11-10T07:16:29.915Z,9.20
2018-11-10T07:18:57.713Z,9.20
2018-11-10T07:21:25.149Z,9.20
2018-11-10T07:23:52.802Z,9.20
2018-11-10T07:26:21.281Z,9.20
2018-11-10T07:28:48.813Z,9.20
2018-11-10T07:31:16.345Z,9.30
2018-11-10T07:33:43.757Z,9.40
2018-11-10T07:36:11.153Z,9.70
2018-11-10T07:38:38.569Z,9.70
2018-11-10T07:41:06.240Z,9.60
2018-11-10T07:43:33.816Z,9.40
2018-11-10T07:46:01.344Z,9.40
2018-11-10T07:48:28.872Z,9.40
2018-11-10T07:50:56.516Z,9.40
2018-11-10T07:53:23.998Z,9.40
2018-11-10T07:55:51.495Z,9.40
2018-11-10T07:58:19.051Z,9.40
2018-11-10T08:00:46.591Z,9.40
2018-11-10T08:03:14.020Z,9.50
2018-11-10T08:05:41.499Z,9.50
2018-11-10T08:08:09.123Z,9.40
2018-11-10T08:10:36.635Z,9.40
2018-11-10T08:13:04.499Z,9.30
2018-11-10T08:15:31.893Z,9.40
2018-11-10T08:17:59.589Z,9.40
2018-11-10T08:20:27.277Z,9.50
2018-11-10T08:22:54.748Z,9.60
2018-11-10T08:25:22.942Z,9.50
2018-11-10T08:27:50.392Z,9.50
2018-11-10T08:30:17.810Z,9.50
2018-11-10T08:32:45.491Z,9.50
2018-11-10T08:35:13.964Z,9.50
2018-11-10T08:37:41.490Z,9.40
2018-11-10T08:40:11.729Z,9.50
2018-11-10T08:42:39.312Z,9.50
2018-11-10T08:45:08.809Z,9.50
2018-11-10T08:47:36.292Z,9.60
2018-11-10T08:50:04.628Z,9.60
2018-11-10T08:52:32.076Z,9.60
2018-11-10T08:54:59.574Z,9.60
2018-11-10T08:57:27.134Z,9.50
2018-11-10T08:59:54.662Z,9.60
2018-11-10T09:02:22.156Z,9.70
2018-11-10T09:04:49.710Z,9.70
2018-11-10T09:07:17.258Z,9.70
2018-11-10T09:09:44.917Z,9.60
2018-11-10T09:12:12.636Z,9.60
2018-11-10T09:14:40.102Z,9.60
2018-11-10T09:17:07.896Z,9.70
2018-11-10T09:19:36.045Z,9.60
2018-11-10T09:22:04.794Z,9.60
2018-11-10T09:24:32.254Z,9.70
2018-11-10T09:26:59.771Z,9.80
2018-11-10T09:29:27.235Z,9.90
2018-11-10T09:31:54.806Z,9.90
2018-11-10T09:34:22.290Z,9.90
2018-11-10T09:36:49.875Z,10.00
2018-11-10T09:39:17.343Z,10.00
2018-11-10T09:41:44.771Z,10.10
2018-11-10T09:44:12.391Z,10.20
2018-11-10T09:46:40.375Z,10.10
2018-11-10T09:49:07.928Z,10.10
2018-11-10T09:51:35.517Z,10.10
2018-11-10T09:54:03.033Z,10.10
2018-11-10T09:56:30.593Z,10.20
2018-11-10T09:58:58.014Z,10.40
2018-11-10T10:01:25.606Z,10.40
2018-11-10T10:03:54.078Z,10.40
2018-11-10T10:06:21.608Z,10.30
2018-11-10T10:08:49.191Z,10.30
2018-11-10T10:11:16.817Z,10.30
2018-11-10T10:13:44.282Z,10.40
2018-11-10T10:16:11.881Z,10.40
2018-11-10T10:18:39.303Z,10.40
2018-11-10T10:21:06.961Z,10.50
2018-11-10T10:23:35.283Z,10.50
2018-11-10T10:26:02.937Z,10.60
2018-11-10T10:28:30.509Z,10.60
2018-11-10T10:30:58.639Z,10.50
2018-11-10T10:33:26.081Z,10.50
2018-11-10T10:35:53.748Z,10.60
2018-11-10T10:38:21.237Z,10.50
2018-11-10T10:40:48.795Z,10.60
2018-11-10T10:43:16.421Z,10.70
2018-11-10T10:45:43.907Z,10.70
2018-11-10T10:48:11.301Z,10.60
2018-11-10T10:50:38.860Z,10.70
2018-11-10T10:53:06.451Z,10.70
2018-11-10T10:55:33.972Z,10.70
2018-11-10T10:58:01.460Z,10.80
2018-11-10T11:00:34.641Z,10.80
2018-11-10T11:03:07.990Z,10.80
2018-11-10T11:05:41.085Z,10.80
2018-11-10T11:08:08.574Z,10.60
2018-11-10T11:10:36.201Z,10.50
2018-11-10T11:13:03.651Z,10.50
2018-11-10T11:15:31.430Z,10.60
2018-11-10T11:17:58.926Z,10.60
2018-11-10T11:20:26.502Z,10.50
2018-11-10T11:22:54.019Z,10.60
2018-11-10T11:25:21.573Z,10.70
2018-11-10T11:27:49.133Z,10.80
2018-11-10T11:30:17.377Z,11.00
2018-11-10T11:32:44.802Z,11.20
2018-11-10T11:35:13.181Z,11.10
2018-11-10T11:37:41.208Z,11.20
2018-11-10T11:40:10.911Z,11.10
2018-11-10T11:42:38.630Z,11.20
2018-11-10T11:45:07.672Z,11.20
2018-11-10T11:47:35.211Z,11.10
2018-11-10T11:50:03.714Z,11.20
2018-11-10T11:52:31.277Z,11.30
2018-11-10T11:54:58.810Z,11.30
2018-11-10T11:57:26.514Z,11.50
2018-11-10T11:59:53.996Z,11.50
2018-11-10T12:02:21.487Z,11.60
2018-11-10T12:04:48.950Z,11.80
2018-11-10T12:07:16.572Z,11.70
2018-11-10T12:09:44.085Z,11.70
2018-11-10T12:12:11.536Z,11.50
2018-11-10T12:14:39.262Z,11.30
2018-11-10T12:17:06.989Z,11.30
2018-11-10T12:19:34.812Z,11.30
2018-11-10T12:22:02.531Z,11.50
2018-11-10T12:24:29.994Z,11.40
2018-11-10T12:26:57.550Z,11.30
2018-11-10T12:29:25.179Z,11.40
2018-11-10T12:31:52.668Z,11.60
2018-11-10T12:34:20.164Z,11.60
2018-11-10T12:36:47.827Z,11.70
2018-11-10T12:39:15.531Z,11.60
2018-11-10T12:41:43.065Z,12.30
2018-11-10T12:44:10.722Z,12.70
2018-11-10T12:46:38.985Z,12.70
2018-11-10T12:49:07.202Z,12.50
2018-11-10T12:51:34.769Z,12.40
2018-11-10T12:54:02.692Z,12.40
2018-11-10T12:56:30.267Z,12.30
2018-11-10T12:58:58.050Z,11.90
2018-11-10T13:01:25.462Z,11.90
2018-11-10T13:03:52.995Z,11.90
2018-11-10T13:06:20.677Z,11.90
2018-11-10T13:08:48.351Z,12.00
2018-11-10T13:11:16.034Z,12.10
2018-11-10T13:13:43.513Z,12.10
2018-11-10T13:16:10.897Z,12.50
2018-11-10T13:18:38.443Z,12.80
2018-11-10T13:21:07.322Z,12.90
2018-11-10T13:23:35.571Z,13.30
2018-11-10T13:26:03.042Z,13.10
2018-11-10T13:28:30.605Z,13.10
2018-11-10T13:30:58.229Z,13.30
2018-11-10T13:33:25.748Z,13.20
2018-11-10T13:35:53.200Z,13.40
2018-11-10T13:38:20.781Z,13.00
2018-11-10T13:40:48.235Z,12.60
2018-11-10T13:43:15.716Z,12.70
2018-11-10T13:45:43.176Z,12.80
2018-11-10T13:48:10.651Z,12.90
2018-11-10T13:50:38.268Z,13.20
2018-11-10T13:53:06.186Z,13.20
2018-11-10T13:55:33.278Z,12.60
2018-11-10T13:58:00.845Z,12.30
2018-11-10T14:00:28.479Z,12.00
2018-11-10T14:02:55.908Z,11.90
2018-11-10T14:05:23.622Z,11.80
2018-11-10T14:07:51.132Z,11.80
2018-11-10T14:10:18.663Z,11.80
2018-11-10T14:12:46.549Z,11.80
2018-11-10T14:15:14.062Z,11.80
2018-11-10T14:17:42.019Z,11.70
2018-11-10T14:20:12.131Z,11.70
2018-11-10T14:22:39.728Z,12.10
2018-11-10T14:25:09.549Z,12.20
2018-11-10T14:27:37.948Z,12.00
2018-11-10T14:30:07.600Z,11.80
2018-11-10T14:32:35.068Z,11.80
2018-11-10T14:35:02.868Z,11.60
2018-11-10T14:37:30.309Z,11.60
2018-11-10T14:39:57.768Z,11.50
2018-11-10T14:42:25.242Z,11.50
2018-11-10T14:44:52.672Z,11.40
2018-11-10T14:47:21.014Z,11.40
2018-11-10T14:49:48.539Z,11.30
2018-11-10T14:52:16.152Z,11.20
2018-11-10T14:54:44.681Z,11.30
2018-11-10T14:57:12.350Z,11.20
2018-11-10T14:59:39.900Z,11.20
2018-11-10T15:02:07.472Z,11.20
2018-11-10T15:04:35.130Z,11.10
2018-11-10T15:07:02.732Z,11.10
2018-11-10T15:09:30.365Z,11.10
2018-11-10T15:11:58.047Z,11.10
2018-11-10T15:14:25.433Z,11.00
2018-11-10T15:16:52.995Z,11.00
2018-11-10T15:19:20.614Z,11.00
2018-11-10T15:21:48.056Z,11.00
2018-11-10T15:24:15.527Z,10.90
2018-11-10T15:26:43.049Z,10.90
2018-11-10T15:29:10.500Z,10.90
2018-11-10T15:31:37.954Z,10.80
2018-11-10T15:34:05.925Z,10.80
2018-11-10T15:36:33.433Z,10.70
2018-11-10T15:39:00.979Z,10.70
2018-11-10T15:41:29.536Z,10.60
2018-11-10T15:43:57.198Z,10.60
2018-11-10T15:46:24.855Z,10.50
2018-11-10T15:48:52.240Z,10.40
2018-11-10T15:51:19.641Z,10.40
2018-11-10T15:53:47.157Z,10.30
2018-11-10T15:56:14.625Z,10.30
2018-11-10T15:58:42.317Z,10.30
2018-11-10T16:01:09.812Z,10.20
2018-11-10T16:03:37.427Z,10.30
2018-11-10T16:06:05.038Z,10.10
2018-11-10T16:08:32.735Z,10.10
2018-11-10T16:11:00.228Z,10.10
2018-11-10T16:13:27.707Z,10.20
2018-11-10T16:15:55.333Z,10.20
2018-11-10T16:18:22.857Z,10.20
2018-11-10T16:20:50.399Z,10.20
2018-11-10T16:23:17.808Z,10.20
2018-11-10T16:25:45.316Z,10.20
2018-11-10T16:28:12.829Z,10.20
2018-11-10T16:30:40.274Z,10.20
2018-11-10T16:33:07.839Z,10.20
2018-11-10T16:35:35.334Z,10.20
2018-11-10T16:38:02.773Z,10.20
2018-11-10T16:40:30.408Z,10.20
2018-11-10T16:42:57.968Z,10.20
2018-11-10T16:45:25.459Z,10.20
2018-11-10T16:47:52.919Z,10.20
2018-11-10T16:50:20.559Z,10.20
2018-11-10T16:52:47.974Z,10.10
2018-11-10T16:55:15.500Z,10.10
2018-11-10T16:57:43.157Z,10.10
2018-11-10T17:00:13.645Z,10.10
2018-11-10T17:02:41.732Z,10.10
2018-11-10T17:05:09.427Z,10.20
2018-11-10T17:07:37.794Z,10.10
2018-11-10T17:10:07.247Z,10.00
2018-11-10T17:12:34.683Z,10.10
2018-11-10T17:15:02.149Z,10.10
2018-11-10T17:17:29.675Z,10.00
2018-11-10T17:19:57.143Z,9.90
2018-11-10T17:22:24.797Z,9.90
2018-11-10T17:24:52.753Z,9.90
2018-11-10T17:27:20.240Z,9.90
2018-11-10T17:29:48.524Z,9.90
2018-11-10T17:32:16.634Z,9.90
2018-11-10T17:34:44.127Z,9.80
2018-11-10T17:37:11.842Z,9.70
2018-11-10T17:39:39.586Z,9.60
2018-11-10T17:42:06.997Z,9.50
2018-11-10T17:44:34.568Z,9.50
2018-11-10T17:47:02.001Z,9.50
2018-11-10T17:49:29.636Z,9.60
2018-11-10T17:51:57.199Z,9.60
2018-11-10T17:54:24.930Z,9.60
2018-11-10T17:56:52.535Z,9.60
2018-11-10T17:59:20.169Z,9.70
2018-11-10T18:01:47.870Z,9.70
2018-11-10T18:04:15.186Z,9.60
2018-11-10T18:06:42.685Z,9.60
2018-11-10T18:09:11.238Z,9.60
2018-11-10T18:11:39.222Z,9.70
2018-11-10T18:14:07.276Z,9.60
2018-11-10T18:16:34.900Z,9.50
2018-11-10T18:19:02.803Z,9.50
2018-11-10T18:21:30.933Z,9.70
2018-11-10T18:23:58.766Z,9.60
2018-11-10T18:26:26.527Z,9.60
2018-11-10T18:28:54.179Z,9.60
2018-11-10T18:31:22.348Z,9.60
2018-11-10T18:33:49.833Z,9.60
2018-11-10T18:36:17.533Z,9.40
2018-11-10T18:38:45.104Z,9.40
2018-11-10T18:41:12.554Z,9.40
2018-11-10T18:43:40.001Z,9.40
2018-11-10T18:46:07.700Z,9.50
2018-11-10T18:48:35.461Z,9.50
2018-11-10T18:51:03.103Z,9.50
2018-11-10T18:53:30.721Z,9.40
2018-11-10T18:55:58.240Z,9.40
2018-11-10T18:58:25.760Z,9.40
2018-11-10T19:00:53.407Z,9.40
2018-11-10T19:03:20.871Z,9.40
2018-11-10T19:05:48.408Z,9.40
2018-11-10T19:08:15.976Z,9.20
2018-11-10T19:10:43.513Z,9.20
2018-11-10T19:13:11.064Z,9.30
2018-11-10T19:15:38.508Z,9.30
2018-11-10T19:18:06.396Z,9.40
2018-11-10T19:20:33.948Z,9.30
2018-11-10T19:23:01.670Z,9.30
2018-11-10T19:25:29.131Z,9.30
2018-11-10T19:27:56.639Z,9.30
2018-11-10T19:30:24.239Z,9.30
2018-11-10T19:32:51.762Z,9.40
2018-11-10T19:35:19.659Z,9.40
2018-11-10T19:37:48.311Z,9.40
2018-11-10T19:40:15.829Z,9.40
2018-11-10T19:42:44.498Z,9.40
2018-11-10T19:45:12.791Z,9.30
2018-11-10T19:47:41.591Z,9.30
2018-11-10T19:50:10.884Z,9.30
2018-11-10T19:52:38.383Z,9.20
2018-11-10T19:55:08.507Z,9.30
2018-11-10T19:57:36.122Z,9.20
2018-11-10T20:00:07.095Z,9.20
2018-11-10T20:02:34.756Z,9.30
2018-11-10T20:05:02.301Z,9.40
2018-11-10T20:07:29.817Z,9.40
2018-11-10T20:09:57.268Z,9.30
2018-11-10T20:12:24.775Z,9.30
2018-11-10T20:14:52.835Z,9.30
2018-11-10T20:17:20.619Z,9.20
2018-11-10T20:19:48.511Z,9.10
2018-11-10T20:22:16.253Z,9.10
2018-11-10T20:24:43.781Z,9.10
2018-11-10T20:27:11.624Z,9.20
2018-11-10T20:29:39.987Z,9.10
2018-11-10T20:32:07.574Z,9.10
2018-11-10T20:34:34.941Z,9.10
2018-11-10T20:37:02.522Z,9.10
2018-11-10T20:39:30.773Z,9.10
2018-11-10T20:41:58.461Z,9.20
2018-11-10T20:44:26.006Z,9.10
2018-11-10T20:46:53.613Z,9.10
2018-11-10T20:49:26.894Z,9.20
2018-11-10T20:51:54.475Z,9.10
2018-11-10T20:54:21.993Z,9.00
2018-11-10T20:56:49.776Z,9.00
2018-11-10T20:59:17.934Z,9.00
2018-11-10T21:01:45.482Z,8.80
2018-11-10T21:04:13.341Z,8.70
2018-11-10T21:06:41.052Z,8.70
2018-11-10T21:09:10.907Z,8.80
2018-11-10T21:11:38.472Z,8.90
2018-11-10T21:14:07.325Z,8.80
2018-11-10T21:16:35.053Z,8.80
2018-11-10T21:19:02.771Z,8.70
2018-11-10T21:21:31.437Z,8.70
2018-11-10T21:23:59.020Z,8.70
2018-11-10T21:26:26.679Z,8.60
2018-11-10T21:28:54.381Z,8.50
2018-11-10T21:31:22.210Z,8.50
2018-11-10T21:33:49.818Z,8.60
2018-11-10T21:36:17.394Z,8.60
2018-11-10T21:38:45.360Z,8.60
2018-11-10T21:41:13.877Z,8.60
2018-11-10T21:43:41.473Z,8.70
2018-11-10T21:46:08.972Z,8.70
2018-11-10T21:48:36.480Z,8.80
2018-11-10T21:51:04.381Z,8.80
2018-11-10T21:53:32.003Z,8.80
2018-11-10T21:55:59.478Z,8.80
2018-11-10T21:58:27.056Z,8.80
2018-11-10T22:00:54.874Z,8.80
2018-11-10T22:03:22.543Z,8.70
2018-11-10T22:05:50.050Z,8.70
2018-11-10T22:08:17.657Z,8.70
2018-11-10T22:10:45.351Z,8.70
2018-11-10T22:13:12.756Z,8.80
2018-11-10T22:15:40.269Z,8.80
2018-11-10T22:18:07.947Z,8.80
2018-11-10T22:20:35.333Z,8.90
2018-11-10T22:23:02.839Z,8.80
2018-11-10T22:25:30.360Z,8.80
2018-11-10T22:27:58.098Z,8.80
2018-11-10T22:30:25.577Z,8.80
2018-11-10T22:32:54.015Z,8.80
2018-11-10T22:35:22.347Z,8.80
2018-11-10T22:37:49.963Z,8.80
2018-11-10T22:40:19.595Z,8.80
2018-11-10T22:42:47.336Z,8.70
2018-11-10T22:45:16.155Z,8.70
2018-11-10T22:47:43.759Z,8.60
2018-11-10T22:50:13.850Z,8.60
2018-11-10T22:52:41.563Z,8.70
2018-11-10T22:55:09.582Z,8.70
2018-11-10T22:57:37.245Z,8.60
2018-11-10T23:00:07.706Z,8.50
2018-11-10T23:02:35.367Z,8.40
2018-11-10T23:05:03.477Z,8.50
2018-11-10T23:07:31.510Z,8.60
2018-11-10T23:09:59.059Z,8.70
2018-11-10T23:12:26.643Z,8.70
2018-11-10T23:14:54.067Z,8.60
2018-11-10T23:17:21.687Z,8.60
2018-11-10T23:19:49.126Z,8.60
2018-11-10T23:22:16.631Z,8.60
2018-11-10T23:24:44.213Z,8.60
2018-11-10T23:27:11.734Z,8.50
2018-11-10T23:29:39.196Z,8.50
2018-11-10T23:32:06.807Z,8.60
2018-11-10T23:34:34.414Z,8.60
2018-11-10T23:37:01.856Z,8.50
2018-11-10T23:39:29.478Z,8.50
2018-11-10T23:41:56.938Z,8.50
2018-11-10T23:44:24.490Z,8.50
2018-11-10T23:46:51.985Z,8.50
2018-11-10T23:49:19.471Z,8.60
2018-11-10T23:51:46.930Z,8.50
2018-11-10T23:54:14.650Z,8.50
2018-11-10T23:56:42.079Z,8.40
2018-11-10T23:59:09.519Z,8.50
